Faya Largeau Airport

FTTY · Borkou, Chad

METAR history FTTY · Faya Largeau Airport

Below you see METARs of the last few days. Select a year to browse through older METARs, from the year 2007 onwards.

June 13, 2024

Time Code Weather Temp. Visibility Ceiling Wind METAR/SPECI
07:00
M
30 °C 7 km - 210° 210° 6 kt METAR FTTJ 130600Z 21006KT 7000 NSC 30/22 Q1010 NOSIG
06:00
M
29 °C 7 km - 180° 180° 5 kt METAR FTTJ 130500Z 18005KT 7000 NSC 29/22 Q1010 NOSIG
05:00
M
29 °C 7 km - 190° 190° 3 kt METAR FTTJ 130400Z 19003KT 7000 NSC 29/22 Q1010 NOSIG
03:00
M
29 °C 7 km - 210° 210° 3 kt METAR FTTJ 130200Z 21003KT 7000 NSC 29/23 Q1010 NOSIG
02:00
M
30 °C 7 km - 240° 240° 4 kt METAR FTTJ 130100Z 24004KT 7000 NSC 30/23 Q1010 NOSIG
01:00
M
30 °C 6 km - Var Var 3 kt METAR FTTJ 130000Z VRB03KT 6000 NSC 30/23 Q1010 NOSIG
00:00
M
31 °C 6 km - 290° 290° 3 kt METAR FTTJ 122300Z 29003KT 6000 NSC 31/22 Q1011 NOSIG

June 12, 2024

Time Code Weather Temp. Visibility Ceiling Wind METAR/SPECI
22:00
M
32 °C 6 km - Var Var 1 kt METAR FTTJ 122100Z VRB01KT 6000 NSC 32/22 Q1011 NOSIG
21:00
M
33 °C 6 km - 340° 340° 6 kt METAR FTTJ 122000Z 34006KT 6000 NSC 33/22 Q1010 NOSIG
20:00
M
34 °C 6 km - 020° 020° 6 kt METAR FTTJ 121900Z 02006KT 340V040 6000 NSC 34/21 Q1010 NOSIG
19:00
M
35 °C 6 km - 130° 130° 6 kt METAR FTTJ 121800Z 13006KT 6000 FEW033 35/19 Q1009 NOSIG
18:00
M
36 °C 6 km - 360° 360° 0 kt METAR FTTJ 121700Z 00000KT 6000 FEW033 36/19 Q1009 NOSIG
17:00
M
37 °C 7 km - Var Var 3 kt METAR FTTJ 121600Z VRB03KT 7000 FEW040 37/18 Q1009 NOSIG
12:00
V
35 °C 8 km - 240° 240° 3 kt METAR FTTJ 121100Z 24003KT 160V320 8000 NSC 35/21 Q1012 NOSIG
11:00
V
33 °C 8 km - 260° 260° 5 kt METAR FTTJ 121000Z 26005KT 180V340 8000 NSC 33/21 Q1012 NOSIG
10:00
V
31 °C 8 km - 290° 290° 5 kt METAR FTTJ 120900Z 29005KT 220V330 8000 NSC 31/22 Q1013 NOSIG
09:00
V
29 °C 8 km - 240° 240° 7 kt METAR FTTJ 120800Z 24007KT 8000 NSC 29/22 Q1013 NOSIG
08:00
V
27 °C 8 km - 250° 250° 6 kt METAR FTTJ 120700Z 25006KT 8000 NSC 27/22 Q1013 NOSIG
07:00
V
26 °C 8 km - 210° 210° 4 kt METAR FTTJ 120600Z 21004KT 180V240 8000 NSC 26/22 Q1013 NOSIG
06:00
V
26 °C 8 km - 240° 240° 4 kt METAR FTTJ 120500Z 24004KT 8000 NSC 26/22 Q1012 NOSIG
05:00
V
26 °C 8 km - Var Var 3 kt METAR FTTJ 120400Z VRB03KT 8000 NSC 26/22 Q1012 NOSIG
04:00
V
27 °C 8 km - Var Var 3 kt METAR FTTJ 120300Z VRB03KT 8000 NSC 27/22 Q1012 NOSIG
02:00
V
27 °C 8 km - Var Var 3 kt METAR FTTJ 120100Z VRB03KT 8000 NSC 27/22 Q1012 NOSIG
01:00
M
27 °C 6 km - 250° 250° 8 kt METAR FTTJ 120000Z 25008KT 6000 NSC 27/21 Q1013 NOSIG

June 11, 2024

Time Code Weather Temp. Visibility Ceiling Wind METAR/SPECI
23:00
M
29 °C 6 km - 200° 200° 5 kt METAR FTTJ 112200Z 20005KT 170V230 6000 NSC 29/21 Q1014 NOSIG
22:00
M
29 °C 6 km - 230° 230° 4 kt METAR FTTJ 112100Z 23004KT 6000 NSC 29/22 Q1013 NOSIG
21:00
M
29 °C 6 km - 240° 240° 4 kt METAR FTTJ 112000Z 24004KT 6000 NSC 29/21 Q1013 NOSIG
20:00
M
30 °C 6 km - 260° 260° 5 kt METAR FTTJ 111900Z 26005KT 230V290 6000 NSC 30/21 Q1012 NOSIG
19:00
M
31 °C 6 km - 240° 240° 4 kt METAR FTTJ 111800Z 24004KT 6000 NSC 31/21 Q1011 NOSIG
18:00
M
31 °C 6 km - 240° 240° 3 kt METAR FTTJ 111700Z 24003KT 6000 NSC 31/21 Q1010 NOSIG
15:00
V
33 °C 8 km - 200° 200° 5 kt METAR FTTJ 111400Z 20005KT 130V290 8000 FEW030 33/20 Q1012 NOSIG
14:00
V
32 °C 8 km - 180° 180° 4 kt METAR FTTJ 111300Z 18004KT 090V250 8000 FEW030 32/21 Q1012 NOSIG
13:00
V
31 °C 8 km - 320° 320° 7 kt METAR FTTJ 111200Z 32007KT 290V010 8000 FEW030 31/22 Q1013 NOSIG
12:00
M
30 °C 7 km - 330° 330° 6 kt METAR FTTJ 111100Z 33006KT 290V360 7000 FEW026 FEW040CB 30/23 Q1014 TEMPO TS
11:00
M
27 °C 7 km - 320° 320° 8 kt METAR FTTJ 111000Z 32008KT 7000 SCT026 FEW040CB 27/23 Q1015 TEMPO TS
10:00
M
27 °C 7 km - 040° 040° 5 kt METAR FTTJ 110900Z 04005KT 010V070 7000 FEW040CB 27/23 Q1016 TEMPO 06018KT 3000 TSRA
09:00
M
27 °C 6 km - 070° 070° 9 kt METAR FTTJ 110800Z 07009KT 6000 -RA SCT040CB 27/24 Q1015 TEMPO 06020KT 3000 TSRA
08:00
M
28 °C 6 km - 110° 110° 4 kt METAR FTTJ 110700Z 11004KT 6000 FEW040CB 28/22 Q1014 TEMPO 09016G30KT 3000 DU TSRA
07:00
M
27 °C 6 km - 210° 210° 7 kt METAR FTTJ 110600Z 21007KT 6000 NSC 27/21 Q1013 NOSIG
Report a change